Terminal Aerodrome Forecast
Issued by NWS Blacksburg, VA

Home | Current Version | Previous Version | Text Only | Print | Product List | Glossary On
Versions: 1 2 3 4 5 6 7 8 9 10 11 12 13 14 15 16 17 18 19 20 21 22 23 24 25 26 27 28 29 30 31 32 33 34 35 36
000
FTUS41 KRNK 280717 AAA
TAFDAN
TAF AMD
KDAN 280717Z 2807/2906 00000KT 4SM BR VCSH SCT020 BKN050
      TEMPO 2808/2812 2SM BR SCT001 BKN020
     FM281300 21004KT P6SM SCT040
     FM281600 17005KT P6SM VCTS BKN045CB
     FM290200 VRB03KT P6SM SCT040 BKN120=

USA.gov is the U.S. government's official web portal to all federal, state and local government web resources and services.